sensor_id;sensor_type;location;lat;lon;timestamp;P1;durP1;ratioP1;P2;durP2;ratioP2
59312;SDS011;45084;51.486;7.366;2023-09-08T00:00:35;11.32;;;7.70;;
59312;SDS011;45084;51.486;7.366;2023-09-08T00:03:01;10.52;;;7.75;;
59312;SDS011;45084;51.486;7.366;2023-09-08T00:05:27;10.07;;;7.50;;
59312;SDS011;45084;51.486;7.366;2023-09-08T00:07:53;15.15;;;8.05;;
59312;SDS011;45084;51.486;7.366;2023-09-08T00:10:19;14.52;;;7.85;;
59312;SDS011;45084;51.486;7.366;2023-09-08T00:12:44;10.63;;;7.72;;
59312;SDS011;45084;51.486;7.366;2023-09-08T00:15:10;15.10;;;7.65;;
59312;SDS011;45084;51.486;7.366;2023-09-08T00:17:36;10.70;;;7.47;;
59312;SDS011;45084;51.486;7.366;2023-09-08T00:20:02;12.93;;;7.72;;
59312;SDS011;45084;51.486;7.366;2023-09-08T00:22:35;9.95;;;7.97;;
59312;SDS011;45084;51.486;7.366;2023-09-08T00:25:02;10.02;;;7.72;;
59312;SDS011;45084;51.486;7.366;2023-09-08T00:27:29;10.02;;;8.20;;
59312;SDS011;45084;51.486;7.366;2023-09-08T00:29:56;10.43;;;7.35;;
59312;SDS011;45084;51.486;7.366;2023-09-08T00:32:21;8.73;;;7.07;;
59312;SDS011;45084;51.486;7.366;2023-09-08T00:34:47;11.45;;;7.38;;
59312;SDS011;45084;51.486;7.366;2023-09-08T00:37:13;12.25;;;7.65;;
59312;SDS011;45084;51.486;7.366;2023-09-08T00:39:38;9.50;;;7.50;;
59312;SDS011;45084;51.486;7.366;2023-09-08T00:42:04;10.80;;;8.10;;
59312;SDS011;45084;51.486;7.366;2023-09-08T00:44:30;10.52;;;7.80;;
59312;SDS011;45084;51.486;7.366;2023-09-08T00:46:55;8.82;;;7.85;;
59312;SDS011;45084;51.486;7.366;2023-09-08T00:49:21;9.02;;;7.60;;
59312;SDS011;45084;51.486;7.366;2023-09-08T00:51:47;10.77;;;7.45;;
59312;SDS011;45084;51.486;7.366;2023-09-08T00:54:13;10.85;;;8.05;;
59312;SDS011;45084;51.486;7.366;2023-09-08T00:56:40;9.75;;;7.95;;
59312;SDS011;45084;51.486;7.366;2023-09-08T00:59:05;9.93;;;8.15;;
59312;SDS011;45084;51.486;7.366;2023-09-08T01:01:33;10.32;;;7.57;;
59312;SDS011;45084;51.486;7.366;2023-09-08T01:04:00;8.68;;;7.50;;
59312;SDS011;45084;51.486;7.366;2023-09-08T01:06:25;10.10;;;7.20;;
59312;SDS011;45084;51.486;7.366;2023-09-08T01:08:52;10.15;;;8.20;;
59312;SDS011;45084;51.486;7.366;2023-09-08T01:11:19;9.85;;;8.15;;
59312;SDS011;45084;51.486;7.366;2023-09-08T01:13:46;10.40;;;7.30;;
59312;SDS011;45084;51.486;7.366;2023-09-08T01:16:12;9.82;;;7.47;;
59312;SDS011;45084;51.486;7.366;2023-09-08T01:18:37;9.02;;;8.13;;
59312;SDS011;45084;51.486;7.366;2023-09-08T01:21:06;11.48;;;8.02;;
59312;SDS011;45084;51.486;7.366;2023-09-08T01:26:25;9.68;;;8.30;;
59312;SDS011;45084;51.486;7.366;2023-09-08T01:28:54;9.18;;;7.18;;
59312;SDS011;45084;51.486;7.366;2023-09-08T01:31:20;10.95;;;7.95;;
59312;SDS011;45084;51.486;7.366;2023-09-08T01:33:46;9.65;;;8.60;;
59312;SDS011;45084;51.486;7.366;2023-09-08T01:36:12;8.98;;;7.90;;
59312;SDS011;45084;51.486;7.366;2023-09-08T01:38:39;9.80;;;7.80;;
59312;SDS011;45084;51.486;7.366;2023-09-08T01:41:05;12.52;;;7.80;;
59312;SDS011;45084;51.486;7.366;2023-09-08T01:43:30;13.57;;;8.45;;
59312;SDS011;45084;51.486;7.366;2023-09-08T01:45:56;8.50;;;7.70;;
59312;SDS011;45084;51.486;7.366;2023-09-08T01:48:22;11.60;;;8.48;;
59312;SDS011;45084;51.486;7.366;2023-09-08T01:50:47;9.00;;;8.05;;
59312;SDS011;45084;51.486;7.366;2023-09-08T01:53:13;12.13;;;8.68;;
59312;SDS011;45084;51.486;7.366;2023-09-08T01:55:39;8.82;;;7.78;;
59312;SDS011;45084;51.486;7.366;2023-09-08T01:58:04;8.65;;;7.78;;
59312;SDS011;45084;51.486;7.366;2023-09-08T02:00:30;10.68;;;7.63;;
59312;SDS011;45084;51.486;7.366;2023-09-08T02:02:56;12.48;;;8.65;;
59312;SDS011;45084;51.486;7.366;2023-09-08T02:05:22;8.95;;;8.00;;
59312;SDS011;45084;51.486;7.366;2023-09-08T02:07:47;11.07;;;8.57;;
59312;SDS011;45084;51.486;7.366;2023-09-08T02:10:14;8.98;;;8.07;;
59312;SDS011;45084;51.486;7.366;2023-09-08T02:12:42;10.23;;;7.68;;
59312;SDS011;45084;51.486;7.366;2023-09-08T02:15:07;10.40;;;8.48;;
59312;SDS011;45084;51.486;7.366;2023-09-08T02:17:34;11.77;;;8.52;;
59312;SDS011;45084;51.486;7.366;2023-09-08T02:19:59;9.88;;;8.38;;
59312;SDS011;45084;51.486;7.366;2023-09-08T02:22:25;9.30;;;7.47;;
59312;SDS011;45084;51.486;7.366;2023-09-08T02:24:50;13.43;;;8.25;;
59312;SDS011;45084;51.486;7.366;2023-09-08T02:27:16;10.90;;;7.82;;
59312;SDS011;45084;51.486;7.366;2023-09-08T02:29:42;8.80;;;7.90;;
59312;SDS011;45084;51.486;7.366;2023-09-08T02:32:08;9.85;;;8.43;;
59312;SDS011;45084;51.486;7.366;2023-09-08T02:34:34;12.38;;;8.50;;
59312;SDS011;45084;51.486;7.366;2023-09-08T02:37:02;15.18;;;9.63;;
59312;SDS011;45084;51.486;7.366;2023-09-08T02:39:27;12.20;;;8.07;;
59312;SDS011;45084;51.486;7.366;2023-09-08T02:41:53;10.25;;;9.02;;
59312;SDS011;45084;51.486;7.366;2023-09-08T02:44:20;12.07;;;8.82;;
59312;SDS011;45084;51.486;7.366;2023-09-08T02:46:47;15.30;;;9.00;;
59312;SDS011;45084;51.486;7.366;2023-09-08T02:49:12;11.40;;;8.73;;
59312;SDS011;45084;51.486;7.366;2023-09-08T02:51:38;11.98;;;9.13;;
59312;SDS011;45084;51.486;7.366;2023-09-08T02:54:04;14.27;;;9.05;;
59312;SDS011;45084;51.486;7.366;2023-09-08T02:56:29;11.02;;;8.75;;
59312;SDS011;45084;51.486;7.366;2023-09-08T02:58:55;13.80;;;9.13;;
59312;SDS011;45084;51.486;7.366;2023-09-08T03:01:20;17.05;;;9.15;;
59312;SDS011;45084;51.486;7.366;2023-09-08T03:03:46;10.70;;;9.45;;
59312;SDS011;45084;51.486;7.366;2023-09-08T03:06:13;11.38;;;8.93;;
59312;SDS011;45084;51.486;7.366;2023-09-08T03:08:40;10.23;;;9.13;;
59312;SDS011;45084;51.486;7.366;2023-09-08T03:11:07;11.57;;;9.15;;
59312;SDS011;45084;51.486;7.366;2023-09-08T03:13:33;9.27;;;8.38;;
59312;SDS011;45084;51.486;7.366;2023-09-08T03:16:09;10.88;;;9.52;;
59312;SDS011;45084;51.486;7.366;2023-09-08T03:18:36;11.15;;;8.70;;
59312;SDS011;45084;51.486;7.366;2023-09-08T03:21:04;11.48;;;9.20;;
59312;SDS011;45084;51.486;7.366;2023-09-08T03:23:35;13.73;;;8.82;;
59312;SDS011;45084;51.486;7.366;2023-09-08T03:26:04;9.70;;;8.43;;
59312;SDS011;45084;51.486;7.366;2023-09-08T03:28:31;10.13;;;8.55;;
59312;SDS011;45084;51.486;7.366;2023-09-08T03:30:58;10.88;;;8.48;;
59312;SDS011;45084;51.486;7.366;2023-09-08T03:33:23;11.65;;;8.90;;
59312;SDS011;45084;51.486;7.366;2023-09-08T03:35:49;11.68;;;8.48;;
59312;SDS011;45084;51.486;7.366;2023-09-08T03:38:17;13.68;;;8.50;;
59312;SDS011;45084;51.486;7.366;2023-09-08T03:40:46;14.40;;;9.13;;
59312;SDS011;45084;51.486;7.366;2023-09-08T03:47:01;9.70;;;8.63;;
59312;SDS011;45084;51.486;7.366;2023-09-08T03:49:28;13.10;;;9.18;;
59312;SDS011;45084;51.486;7.366;2023-09-08T03:51:53;11.75;;;8.35;;
59312;SDS011;45084;51.486;7.366;2023-09-08T03:54:19;11.40;;;8.38;;
59312;SDS011;45084;51.486;7.366;2023-09-08T03:56:44;12.90;;;8.88;;
59312;SDS011;45084;51.486;7.366;2023-09-08T03:59:10;9.73;;;8.68;;
59312;SDS011;45084;51.486;7.366;2023-09-08T04:01:38;10.32;;;8.23;;
59312;SDS011;45084;51.486;7.366;2023-09-08T04:04:03;10.20;;;9.13;;
59312;SDS011;45084;51.486;7.366;2023-09-08T04:06:29;13.52;;;8.13;;
59312;SDS011;45084;51.486;7.366;2023-09-08T04:08:55;11.27;;;8.70;;
59312;SDS011;45084;51.486;7.366;2023-09-08T04:11:22;11.02;;;8.93;;
59312;SDS011;45084;51.486;7.366;2023-09-08T04:13:50;9.88;;;8.88;;
59312;SDS011;45084;51.486;7.366;2023-09-08T04:16:16;11.45;;;8.70;;
59312;SDS011;45084;51.486;7.366;2023-09-08T04:18:42;12.63;;;7.97;;
59312;SDS011;45084;51.486;7.366;2023-09-08T04:21:07;10.15;;;8.85;;
59312;SDS011;45084;51.486;7.366;2023-09-08T04:23:36;11.98;;;8.73;;
59312;SDS011;45084;51.486;7.366;2023-09-08T04:26:01;9.75;;;8.73;;
59312;SDS011;45084;51.486;7.366;2023-09-08T04:28:30;10.43;;;8.45;;
59312;SDS011;45084;51.486;7.366;2023-09-08T04:30:56;10.52;;;9.43;;
59312;SDS011;45084;51.486;7.366;2023-09-08T04:33:24;11.60;;;8.68;;
59312;SDS011;45084;51.486;7.366;2023-09-08T04:35:54;13.60;;;9.38;;
59312;SDS011;45084;51.486;7.366;2023-09-08T04:38:25;12.20;;;9.20;;
59312;SDS011;45084;51.486;7.366;2023-09-08T04:40:51;10.55;;;9.45;;
59312;SDS011;45084;51.486;7.366;2023-09-08T04:43:23;13.40;;;8.90;;
59312;SDS011;45084;51.486;7.366;2023-09-08T04:46:17;17.27;;;8.68;;
59312;SDS011;45084;51.486;7.366;2023-09-08T04:49:14;10.82;;;8.73;;
59312;SDS011;45084;51.486;7.366;2023-09-08T04:55:38;9.77;;;8.77;;
59312;SDS011;45084;51.486;7.366;2023-09-08T04:58:03;12.43;;;9.45;;
59312;SDS011;45084;51.486;7.366;2023-09-08T05:00:29;12.40;;;8.70;;
59312;SDS011;45084;51.486;7.366;2023-09-08T05:02:54;10.43;;;8.65;;
59312;SDS011;45084;51.486;7.366;2023-09-08T05:05:20;12.20;;;8.65;;
59312;SDS011;45084;51.486;7.366;2023-09-08T05:07:45;13.30;;;8.80;;
59312;SDS011;45084;51.486;7.366;2023-09-08T05:10:13;10.50;;;9.30;;
59312;SDS011;45084;51.486;7.366;2023-09-08T05:12:38;10.30;;;9.05;;
59312;SDS011;45084;51.486;7.366;2023-09-08T05:15:04;14.10;;;9.52;;
59312;SDS011;45084;51.486;7.366;2023-09-08T05:17:35;10.88;;;9.77;;
59312;SDS011;45084;51.486;7.366;2023-09-08T05:20:01;11.85;;;9.55;;
59312;SDS011;45084;51.486;7.366;2023-09-08T05:22:27;13.68;;;9.90;;
59312;SDS011;45084;51.486;7.366;2023-09-08T05:24:52;10.60;;;9.52;;
59312;SDS011;45084;51.486;7.366;2023-09-08T05:27:18;9.38;;;8.38;;
59312;SDS011;45084;51.486;7.366;2023-09-08T05:29:44;10.65;;;9.55;;
59312;SDS011;45084;51.486;7.366;2023-09-08T05:32:09;14.48;;;9.48;;
59312;SDS011;45084;51.486;7.366;2023-09-08T05:34:35;12.38;;;9.18;;
59312;SDS011;45084;51.486;7.366;2023-09-08T05:37:00;11.18;;;9.38;;
59312;SDS011;45084;51.486;7.366;2023-09-08T05:39:26;15.23;;;9.45;;
59312;SDS011;45084;51.486;7.366;2023-09-08T05:41:52;11.50;;;8.85;;
59312;SDS011;45084;51.486;7.366;2023-09-08T05:44:17;9.88;;;8.98;;
59312;SDS011;45084;51.486;7.366;2023-09-08T05:46:43;10.50;;;9.40;;
59312;SDS011;45084;51.486;7.366;2023-09-08T05:49:09;13.40;;;9.82;;
59312;SDS011;45084;51.486;7.366;2023-09-08T05:51:34;12.43;;;9.93;;
59312;SDS011;45084;51.486;7.366;2023-09-08T05:54:00;12.73;;;9.75;;
59312;SDS011;45084;51.486;7.366;2023-09-08T05:56:29;13.98;;;10.68;;
59312;SDS011;45084;51.486;7.366;2023-09-08T05:58:56;10.68;;;9.57;;
59312;SDS011;45084;51.486;7.366;2023-09-08T06:01:21;11.02;;;9.93;;
59312;SDS011;45084;51.486;7.366;2023-09-08T06:03:49;13.95;;;10.23;;
59312;SDS011;45084;51.486;7.366;2023-09-08T06:06:15;11.88;;;10.38;;
59312;SDS011;45084;51.486;7.366;2023-09-08T06:08:40;16.83;;;10.95;;
59312;SDS011;45084;51.486;7.366;2023-09-08T06:11:06;12.68;;;10.00;;
59312;SDS011;45084;51.486;7.366;2023-09-08T06:13:32;14.02;;;10.63;;
59312;SDS011;45084;51.486;7.366;2023-09-08T06:15:58;16.30;;;10.07;;
59312;SDS011;45084;51.486;7.366;2023-09-08T06:18:24;12.15;;;9.40;;
59312;SDS011;45084;51.486;7.366;2023-09-08T06:20:54;12.35;;;9.90;;
59312;SDS011;45084;51.486;7.366;2023-09-08T06:23:19;10.90;;;9.82;;
59312;SDS011;45084;51.486;7.366;2023-09-08T06:25:46;10.73;;;9.15;;
59312;SDS011;45084;51.486;7.366;2023-09-08T06:28:11;11.50;;;10.27;;
59312;SDS011;45084;51.486;7.366;2023-09-08T06:30:37;13.52;;;10.68;;
59312;SDS011;45084;51.486;7.366;2023-09-08T06:33:06;11.25;;;9.65;;
59312;SDS011;45084;51.486;7.366;2023-09-08T06:35:35;11.32;;;10.02;;
59312;SDS011;45084;51.486;7.366;2023-09-08T06:38:00;14.88;;;10.20;;
59312;SDS011;45084;51.486;7.366;2023-09-08T06:40:28;11.70;;;10.30;;
59312;SDS011;45084;51.486;7.366;2023-09-08T06:42:54;11.55;;;10.13;;
59312;SDS011;45084;51.486;7.366;2023-09-08T06:45:20;12.75;;;9.55;;
59312;SDS011;45084;51.486;7.366;2023-09-08T06:47:46;11.85;;;9.82;;
59312;SDS011;45084;51.486;7.366;2023-09-08T06:50:11;12.30;;;9.43;;
59312;SDS011;45084;51.486;7.366;2023-09-08T06:52:37;15.07;;;9.32;;
59312;SDS011;45084;51.486;7.366;2023-09-08T06:55:02;13.57;;;8.82;;
59312;SDS011;45084;51.486;7.366;2023-09-08T06:57:30;10.23;;;9.13;;
59312;SDS011;45084;51.486;7.366;2023-09-08T06:59:55;14.32;;;9.13;;
59312;SDS011;45084;51.486;7.366;2023-09-08T07:02:21;11.02;;;8.60;;
59312;SDS011;45084;51.486;7.366;2023-09-08T07:04:46;8.98;;;8.07;;
59312;SDS011;45084;51.486;7.366;2023-09-08T07:07:12;11.13;;;7.72;;
59312;SDS011;45084;51.486;7.366;2023-09-08T07:09:37;11.00;;;7.05;;
59312;SDS011;45084;51.486;7.366;2023-09-08T07:12:03;6.50;;;5.82;;
59312;SDS011;45084;51.486;7.366;2023-09-08T07:14:30;7.63;;;6.88;;
59312;SDS011;45084;51.486;7.366;2023-09-08T07:16:56;10.65;;;7.53;;
59312;SDS011;45084;51.486;7.366;2023-09-08T07:19:22;8.10;;;6.85;;
59312;SDS011;45084;51.486;7.366;2023-09-08T07:21:47;9.35;;;6.60;;
59312;SDS011;45084;51.486;7.366;2023-09-08T07:24:13;10.57;;;6.70;;
59312;SDS011;45084;51.486;7.366;2023-09-08T07:26:38;6.85;;;6.15;;
59312;SDS011;45084;51.486;7.366;2023-09-08T07:29:04;5.78;;;5.00;;
59312;SDS011;45084;51.486;7.366;2023-09-08T07:31:29;6.43;;;5.20;;
59312;SDS011;45084;51.486;7.366;2023-09-08T07:33:55;6.28;;;5.75;;
59312;SDS011;45084;51.486;7.366;2023-09-08T07:36:21;10.95;;;5.10;;
59312;SDS011;45084;51.486;7.366;2023-09-08T07:38:46;5.15;;;4.75;;
59312;SDS011;45084;51.486;7.366;2023-09-08T07:41:12;6.00;;;5.13;;
59312;SDS011;45084;51.486;7.366;2023-09-08T07:43:40;6.82;;;4.82;;
59312;SDS011;45084;51.486;7.366;2023-09-08T07:46:07;6.45;;;4.63;;
59312;SDS011;45084;51.486;7.366;2023-09-08T07:48:33;5.93;;;4.35;;
59312;SDS011;45084;51.486;7.366;2023-09-08T07:50:59;5.10;;;4.70;;
59312;SDS011;45084;51.486;7.366;2023-09-08T07:53:25;6.05;;;5.10;;
59312;SDS011;45084;51.486;7.366;2023-09-08T07:55:51;6.90;;;4.32;;
59312;SDS011;45084;51.486;7.366;2023-09-08T07:58:17;4.97;;;4.57;;
59312;SDS011;45084;51.486;7.366;2023-09-08T08:00:42;4.90;;;4.35;;
59312;SDS011;45084;51.486;7.366;2023-09-08T08:03:08;5.18;;;4.60;;
59312;SDS011;45084;51.486;7.366;2023-09-08T08:05:34;6.50;;;4.13;;
59312;SDS011;45084;51.486;7.366;2023-09-08T08:08:00;5.03;;;4.50;;
59312;SDS011;45084;51.486;7.366;2023-09-08T08:10:25;5.85;;;4.90;;
59312;SDS011;45084;51.486;7.366;2023-09-08T08:12:51;6.10;;;4.72;;
59312;SDS011;45084;51.486;7.366;2023-09-08T08:15:18;7.20;;;4.88;;
59312;SDS011;45084;51.486;7.366;2023-09-08T08:17:45;5.10;;;4.60;;
59312;SDS011;45084;51.486;7.366;2023-09-08T08:20:11;4.93;;;4.53;;
59312;SDS011;45084;51.486;7.366;2023-09-08T08:22:42;6.03;;;4.30;;
59312;SDS011;45084;51.486;7.366;2023-09-08T08:25:08;6.10;;;4.20;;
59312;SDS011;45084;51.486;7.366;2023-09-08T08:27:34;4.57;;;4.18;;
59312;SDS011;45084;51.486;7.366;2023-09-08T08:29:59;4.30;;;3.90;;
59312;SDS011;45084;51.486;7.366;2023-09-08T08:32:26;5.50;;;4.38;;
59312;SDS011;45084;51.486;7.366;2023-09-08T08:34:52;4.90;;;4.40;;
59312;SDS011;45084;51.486;7.366;2023-09-08T08:37:18;5.30;;;4.65;;
59312;SDS011;45084;51.486;7.366;2023-09-08T08:39:43;6.00;;;4.43;;
59312;SDS011;45084;51.486;7.366;2023-09-08T08:42:10;5.13;;;4.28;;
59312;SDS011;45084;51.486;7.366;2023-09-08T08:44:37;4.38;;;3.95;;
59312;SDS011;45084;51.486;7.366;2023-09-08T08:47:03;6.97;;;4.28;;
59312;SDS011;45084;51.486;7.366;2023-09-08T08:49:34;6.30;;;4.35;;
59312;SDS011;45084;51.486;7.366;2023-09-08T08:52:01;6.05;;;4.38;;
59312;SDS011;45084;51.486;7.366;2023-09-08T08:54:32;5.82;;;3.97;;
59312;SDS011;45084;51.486;7.366;2023-09-08T08:57:00;6.05;;;4.35;;
59312;SDS011;45084;51.486;7.366;2023-09-08T08:59:27;4.88;;;4.38;;
59312;SDS011;45084;51.486;7.366;2023-09-08T09:01:53;5.95;;;4.32;;
59312;SDS011;45084;51.486;7.366;2023-09-08T09:04:20;7.03;;;4.32;;
59312;SDS011;45084;51.486;7.366;2023-09-08T09:06:46;5.63;;;4.00;;
59312;SDS011;45084;51.486;7.366;2023-09-08T09:09:12;4.60;;;4.13;;
59312;SDS011;45084;51.486;7.366;2023-09-08T09:11:39;4.70;;;4.15;;
59312;SDS011;45084;51.486;7.366;2023-09-08T09:14:05;9.23;;;4.28;;
59312;SDS011;45084;51.486;7.366;2023-09-08T09:16:30;9.20;;;4.20;;
59312;SDS011;45084;51.486;7.366;2023-09-08T09:19:03;8.27;;;4.57;;
59312;SDS011;45084;51.486;7.366;2023-09-08T09:21:44;4.82;;;4.10;;
59312;SDS011;45084;51.486;7.366;2023-09-08T09:24:28;4.80;;;4.30;;
59312;SDS011;45084;51.486;7.366;2023-09-08T09:26:53;6.65;;;4.55;;
59312;SDS011;45084;51.486;7.366;2023-09-08T09:29:20;4.65;;;4.28;;
59312;SDS011;45084;51.486;7.366;2023-09-08T09:34:18;5.10;;;4.43;;
59312;SDS011;45084;51.486;7.366;2023-09-08T09:36:46;4.93;;;4.43;;
59312;SDS011;45084;51.486;7.366;2023-09-08T09:39:19;5.45;;;4.18;;
59312;SDS011;45084;51.486;7.366;2023-09-08T09:41:47;5.68;;;4.70;;
59312;SDS011;45084;51.486;7.366;2023-09-08T09:44:13;4.45;;;4.05;;
59312;SDS011;45084;51.486;7.366;2023-09-08T09:46:45;6.30;;;4.10;;
59312;SDS011;45084;51.486;7.366;2023-09-08T09:49:12;4.75;;;4.13;;
59312;SDS011;45084;51.486;7.366;2023-09-08T09:51:45;6.35;;;4.50;;
59312;SDS011;45084;51.486;7.366;2023-09-08T09:54:12;5.50;;;4.40;;
59312;SDS011;45084;51.486;7.366;2023-09-08T09:56:39;4.60;;;4.00;;
59312;SDS011;45084;51.486;7.366;2023-09-08T09:59:07;6.10;;;4.25;;
59312;SDS011;45084;51.486;7.366;2023-09-08T10:01:34;5.22;;;4.35;;
59312;SDS011;45084;51.486;7.366;2023-09-08T10:04:01;6.30;;;4.80;;
59312;SDS011;45084;51.486;7.366;2023-09-08T10:06:30;6.57;;;4.35;;
59312;SDS011;45084;51.486;7.366;2023-09-08T10:09:00;6.25;;;4.85;;
59312;SDS011;45084;51.486;7.366;2023-09-08T10:11:29;5.45;;;4.90;;
59312;SDS011;45084;51.486;7.366;2023-09-08T10:14:14;5.68;;;4.80;;
59312;SDS011;45084;51.486;7.366;2023-09-08T10:16:40;5.13;;;4.60;;
59312;SDS011;45084;51.486;7.366;2023-09-08T10:19:10;6.13;;;4.32;;
59312;SDS011;45084;51.486;7.366;2023-09-08T10:21:39;8.75;;;4.82;;
59312;SDS011;45084;51.486;7.366;2023-09-08T10:24:09;6.40;;;4.35;;
59312;SDS011;45084;51.486;7.366;2023-09-08T10:26:38;6.55;;;4.50;;
59312;SDS011;45084;51.486;7.366;2023-09-08T10:29:08;5.13;;;4.72;;
59312;SDS011;45084;51.486;7.366;2023-09-08T10:31:35;5.07;;;4.47;;
59312;SDS011;45084;51.486;7.366;2023-09-08T10:34:01;7.82;;;4.38;;
59312;SDS011;45084;51.486;7.366;2023-09-08T10:36:28;5.85;;;4.68;;
59312;SDS011;45084;51.486;7.366;2023-09-08T10:38:54;4.95;;;3.90;;
59312;SDS011;45084;51.486;7.366;2023-09-08T10:46:26;5.03;;;4.43;;
59312;SDS011;45084;51.486;7.366;2023-09-08T10:48:54;4.38;;;3.95;;
59312;SDS011;45084;51.486;7.366;2023-09-08T10:51:20;4.93;;;4.20;;
59312;SDS011;45084;51.486;7.366;2023-09-08T10:53:47;5.20;;;4.60;;
59312;SDS011;45084;51.486;7.366;2023-09-08T10:56:14;5.05;;;4.15;;
59312;SDS011;45084;51.486;7.366;2023-09-08T10:58:41;4.68;;;4.22;;
59312;SDS011;45084;51.486;7.366;2023-09-08T11:01:12;5.22;;;4.30;;
59312;SDS011;45084;51.486;7.366;2023-09-08T11:03:43;4.00;;;3.60;;
59312;SDS011;45084;51.486;7.366;2023-09-08T11:06:11;4.72;;;4.00;;
59312;SDS011;45084;51.486;7.366;2023-09-08T11:08:38;5.82;;;3.97;;
59312;SDS011;45084;51.486;7.366;2023-09-08T11:11:06;4.97;;;4.00;;
59312;SDS011;45084;51.486;7.366;2023-09-08T11:13:32;11.13;;;4.28;;
59312;SDS011;45084;51.486;7.366;2023-09-08T11:15:58;4.10;;;3.70;;
59312;SDS011;45084;51.486;7.366;2023-09-08T11:18:29;6.85;;;3.75;;
59312;SDS011;45084;51.486;7.366;2023-09-08T11:20:56;11.25;;;4.18;;
59312;SDS011;45084;51.486;7.366;2023-09-08T11:23:22;3.97;;;3.65;;
59312;SDS011;45084;51.486;7.366;2023-09-08T11:25:49;7.97;;;4.20;;
59312;SDS011;45084;51.486;7.366;2023-09-08T11:28:16;5.70;;;4.13;;
59312;SDS011;45084;51.486;7.366;2023-09-08T11:30:42;4.40;;;4.00;;
59312;SDS011;45084;51.486;7.366;2023-09-08T11:33:17;6.53;;;4.03;;
59312;SDS011;45084;51.486;7.366;2023-09-08T11:35:47;4.47;;;3.88;;
59312;SDS011;45084;51.486;7.366;2023-09-08T11:38:13;4.50;;;4.20;;
59312;SDS011;45084;51.486;7.366;2023-09-08T11:40:38;4.22;;;3.80;;
59312;SDS011;45084;51.486;7.366;2023-09-08T11:43:05;4.40;;;4.00;;
59312;SDS011;45084;51.486;7.366;2023-09-08T11:45:34;7.25;;;4.07;;
59312;SDS011;45084;51.486;7.366;2023-09-08T11:48:00;7.65;;;3.88;;
59312;SDS011;45084;51.486;7.366;2023-09-08T11:50:26;4.53;;;3.65;;
59312;SDS011;45084;51.486;7.366;2023-09-08T11:52:52;4.28;;;3.88;;
59312;SDS011;45084;51.486;7.366;2023-09-08T11:55:19;4.38;;;3.97;;
59312;SDS011;45084;51.486;7.366;2023-09-08T11:57:51;4.28;;;3.70;;
59312;SDS011;45084;51.486;7.366;2023-09-08T12:00:26;6.25;;;3.78;;
59312;SDS011;45084;51.486;7.366;2023-09-08T12:02:53;3.90;;;3.58;;
59312;SDS011;45084;51.486;7.366;2023-09-08T12:05:26;6.25;;;3.80;;
59312;SDS011;45084;51.486;7.366;2023-09-08T12:07:55;7.63;;;4.05;;
59312;SDS011;45084;51.486;7.366;2023-09-08T12:10:23;5.60;;;4.05;;
59312;SDS011;45084;51.486;7.366;2023-09-08T12:12:51;4.18;;;3.47;;
59312;SDS011;45084;51.486;7.366;2023-09-08T12:15:31;6.68;;;4.03;;
59312;SDS011;45084;51.486;7.366;2023-09-08T12:18:02;3.97;;;3.67;;
59312;SDS011;45084;51.486;7.366;2023-09-08T12:20:30;4.47;;;4.07;;
59312;SDS011;45084;51.486;7.366;2023-09-08T12:22:59;7.60;;;4.15;;
59312;SDS011;45084;51.486;7.366;2023-09-08T12:25:29;4.05;;;3.50;;
59312;SDS011;45084;51.486;7.366;2023-09-08T12:27:57;5.10;;;4.28;;
59312;SDS011;45084;51.486;7.366;2023-09-08T12:30:23;4.35;;;4.00;;
59312;SDS011;45084;51.486;7.366;2023-09-08T12:32:55;4.30;;;3.90;;
59312;SDS011;45084;51.486;7.366;2023-09-08T12:35:22;5.07;;;3.60;;
59312;SDS011;45084;51.486;7.366;2023-09-08T12:37:52;4.25;;;3.85;;
59312;SDS011;45084;51.486;7.366;2023-09-08T12:40:21;5.57;;;3.90;;
59312;SDS011;45084;51.486;7.366;2023-09-08T12:42:47;5.75;;;3.70;;
59312;SDS011;45084;51.486;7.366;2023-09-08T12:45:13;6.47;;;4.13;;
59312;SDS011;45084;51.486;7.366;2023-09-08T12:47:38;6.00;;;4.05;;
59312;SDS011;45084;51.486;7.366;2023-09-08T12:50:04;5.00;;;4.15;;
59312;SDS011;45084;51.486;7.366;2023-09-08T12:52:30;4.30;;;4.00;;
59312;SDS011;45084;51.486;7.366;2023-09-08T12:54:57;6.32;;;3.95;;
59312;SDS011;45084;51.486;7.366;2023-09-08T12:57:22;4.13;;;3.72;;
59312;SDS011;45084;51.486;7.366;2023-09-08T12:59:48;5.18;;;4.00;;
59312;SDS011;45084;51.486;7.366;2023-09-08T13:02:16;4.40;;;3.88;;
59312;SDS011;45084;51.486;7.366;2023-09-08T13:04:41;5.65;;;3.83;;
59312;SDS011;45084;51.486;7.366;2023-09-08T13:07:09;4.85;;;3.95;;
59312;SDS011;45084;51.486;7.366;2023-09-08T13:09:34;4.45;;;4.05;;
59312;SDS011;45084;51.486;7.366;2023-09-08T13:12:00;6.25;;;4.28;;
59312;SDS011;45084;51.486;7.366;2023-09-08T13:14:25;3.95;;;3.65;;
59312;SDS011;45084;51.486;7.366;2023-09-08T13:16:51;4.25;;;3.90;;
59312;SDS011;45084;51.486;7.366;2023-09-08T13:19:16;4.13;;;3.72;;
59312;SDS011;45084;51.486;7.366;2023-09-08T13:21:42;3.90;;;3.47;;
59312;SDS011;45084;51.486;7.366;2023-09-08T13:24:08;3.90;;;3.47;;
59312;SDS011;45084;51.486;7.366;2023-09-08T13:26:34;5.90;;;3.67;;
59312;SDS011;45084;51.486;7.366;2023-09-08T13:28:59;4.03;;;3.60;;
59312;SDS011;45084;51.486;7.366;2023-09-08T13:31:25;4.18;;;3.75;;
59312;SDS011;45084;51.486;7.366;2023-09-08T13:33:50;3.78;;;3.30;;
59312;SDS011;45084;51.486;7.366;2023-09-08T13:36:16;5.40;;;3.85;;
59312;SDS011;45084;51.486;7.366;2023-09-08T13:38:41;4.03;;;3.63;;
59312;SDS011;45084;51.486;7.366;2023-09-08T13:41:07;4.22;;;3.70;;
59312;SDS011;45084;51.486;7.366;2023-09-08T13:43:32;4.20;;;3.80;;
59312;SDS011;45084;51.486;7.366;2023-09-08T13:45:58;4.20;;;3.80;;
59312;SDS011;45084;51.486;7.366;2023-09-08T13:48:24;4.13;;;3.72;;
59312;SDS011;45084;51.486;7.366;2023-09-08T13:51:00;5.28;;;4.05;;
59312;SDS011;45084;51.486;7.366;2023-09-08T13:53:35;4.15;;;3.85;;
59312;SDS011;45084;51.486;7.366;2023-09-08T13:56:01;4.93;;;3.83;;
59312;SDS011;45084;51.486;7.366;2023-09-08T13:58:27;4.53;;;3.78;;
59312;SDS011;45084;51.486;7.366;2023-09-08T14:00:52;4.28;;;3.90;;
59312;SDS011;45084;51.486;7.366;2023-09-08T14:03:18;5.00;;;4.00;;
59312;SDS011;45084;51.486;7.366;2023-09-08T14:05:44;4.32;;;4.03;;
59312;SDS011;45084;51.486;7.366;2023-09-08T14:08:12;4.80;;;3.63;;
59312;SDS011;45084;51.486;7.366;2023-09-08T14:10:38;4.65;;;3.88;;
59312;SDS011;45084;51.486;7.366;2023-09-08T14:13:03;5.68;;;4.40;;
59312;SDS011;45084;51.486;7.366;2023-09-08T14:15:29;3.80;;;3.50;;
59312;SDS011;45084;51.486;7.366;2023-09-08T14:17:55;5.15;;;3.58;;
59312;SDS011;45084;51.486;7.366;2023-09-08T14:20:21;6.97;;;4.00;;
59312;SDS011;45084;51.486;7.366;2023-09-08T14:22:47;4.93;;;4.10;;
59312;SDS011;45084;51.486;7.366;2023-09-08T14:25:13;4.30;;;3.90;;
59312;SDS011;45084;51.486;7.366;2023-09-08T14:27:39;5.15;;;3.85;;
59312;SDS011;45084;51.486;7.366;2023-09-08T14:30:04;4.20;;;3.80;;
59312;SDS011;45084;51.486;7.366;2023-09-08T14:32:31;4.53;;;4.15;;
59312;SDS011;45084;51.486;7.366;2023-09-08T14:34:56;4.50;;;4.10;;
59312;SDS011;45084;51.486;7.366;2023-09-08T14:37:22;4.68;;;3.70;;
59312;SDS011;45084;51.486;7.366;2023-09-08T14:39:48;4.88;;;3.83;;
59312;SDS011;45084;51.486;7.366;2023-09-08T14:42:13;4.18;;;3.88;;
59312;SDS011;45084;51.486;7.366;2023-09-08T14:44:40;5.40;;;4.10;;
59312;SDS011;45084;51.486;7.366;2023-09-08T14:47:06;4.00;;;3.70;;
59312;SDS011;45084;51.486;7.366;2023-09-08T14:49:32;5.22;;;4.05;;
59312;SDS011;45084;51.486;7.366;2023-09-08T14:51:58;4.20;;;3.80;;
59312;SDS011;45084;51.486;7.366;2023-09-08T14:54:24;4.70;;;4.00;;
59312;SDS011;45084;51.486;7.366;2023-09-08T14:56:50;5.65;;;3.78;;
59312;SDS011;45084;51.486;7.366;2023-09-08T14:59:16;4.65;;;4.22;;